sensor_id;sensor_type;location;lat;lon;timestamp;P1;durP1;ratioP1;P2;durP2;ratioP2
7398;SDS011;3740;50.700;7.184;2023-02-13T00:01:12;12.93;;;11.63;;
7398;SDS011;3740;50.700;7.184;2023-02-13T00:03:38;12.50;;;11.20;;
7398;SDS011;3740;50.700;7.184;2023-02-13T00:06:04;13.53;;;12.13;;
7398;SDS011;3740;50.700;7.184;2023-02-13T00:08:29;12.83;;;11.53;;
7398;SDS011;3740;50.700;7.184;2023-02-13T00:10:55;12.70;;;11.40;;
7398;SDS011;3740;50.700;7.184;2023-02-13T00:13:21;12.50;;;11.20;;
7398;SDS011;3740;50.700;7.184;2023-02-13T00:15:53;12.63;;;11.43;;
7398;SDS011;3740;50.700;7.184;2023-02-13T00:18:20;12.40;;;11.17;;
7398;SDS011;3740;50.700;7.184;2023-02-13T00:20:55;12.40;;;11.13;;
7398;SDS011;3740;50.700;7.184;2023-02-13T00:23:32;12.47;;;11.17;;
7398;SDS011;3740;50.700;7.184;2023-02-13T00:25:59;11.03;;;10.03;;
7398;SDS011;3740;50.700;7.184;2023-02-13T00:28:26;11.80;;;10.70;;
7398;SDS011;3740;50.700;7.184;2023-02-13T00:30:52;12.30;;;11.10;;
7398;SDS011;3740;50.700;7.184;2023-02-13T00:33:17;11.33;;;10.20;;
7398;SDS011;3740;50.700;7.184;2023-02-13T00:35:43;11.40;;;10.33;;
7398;SDS011;3740;50.700;7.184;2023-02-13T00:38:08;11.73;;;10.57;;
7398;SDS011;3740;50.700;7.184;2023-02-13T00:40:34;11.60;;;10.43;;
7398;SDS011;3740;50.700;7.184;2023-02-13T00:43:00;11.83;;;10.73;;
7398;SDS011;3740;50.700;7.184;2023-02-13T00:45:25;11.00;;;10.00;;
7398;SDS011;3740;50.700;7.184;2023-02-13T00:47:51;12.20;;;11.00;;
7398;SDS011;3740;50.700;7.184;2023-02-13T00:50:16;11.97;;;10.77;;
7398;SDS011;3740;50.700;7.184;2023-02-13T00:52:42;11.70;;;10.57;;
7398;SDS011;3740;50.700;7.184;2023-02-13T00:55:07;11.27;;;10.17;;
7398;SDS011;3740;50.700;7.184;2023-02-13T00:57:33;11.57;;;10.37;;
7398;SDS011;3740;50.700;7.184;2023-02-13T00:59:58;11.60;;;10.40;;
7398;SDS011;3740;50.700;7.184;2023-02-13T01:02:24;10.93;;;9.90;;
7398;SDS011;3740;50.700;7.184;2023-02-13T01:04:50;11.20;;;10.10;;
7398;SDS011;3740;50.700;7.184;2023-02-13T01:07:15;11.07;;;10.03;;
7398;SDS011;3740;50.700;7.184;2023-02-13T01:09:41;12.13;;;10.93;;
7398;SDS011;3740;50.700;7.184;2023-02-13T01:12:06;11.20;;;10.10;;
7398;SDS011;3740;50.700;7.184;2023-02-13T01:14:32;11.33;;;10.23;;
7398;SDS011;3740;50.700;7.184;2023-02-13T01:16:58;12.33;;;11.10;;
7398;SDS011;3740;50.700;7.184;2023-02-13T01:19:23;11.60;;;10.50;;
7398;SDS011;3740;50.700;7.184;2023-02-13T01:21:49;11.53;;;10.43;;
7398;SDS011;3740;50.700;7.184;2023-02-13T01:24:15;12.90;;;11.67;;
7398;SDS011;3740;50.700;7.184;2023-02-13T01:26:40;12.03;;;10.90;;
7398;SDS011;3740;50.700;7.184;2023-02-13T01:29:06;11.97;;;10.87;;
7398;SDS011;3740;50.700;7.184;2023-02-13T01:31:32;12.10;;;10.90;;
7398;SDS011;3740;50.700;7.184;2023-02-13T01:33:57;11.77;;;10.77;;
7398;SDS011;3740;50.700;7.184;2023-02-13T01:36:23;12.30;;;11.10;;
7398;SDS011;3740;50.700;7.184;2023-02-13T01:38:54;10.93;;;9.93;;
7398;SDS011;3740;50.700;7.184;2023-02-13T01:41:21;11.93;;;10.83;;
7398;SDS011;3740;50.700;7.184;2023-02-13T01:43:52;12.03;;;10.93;;
7398;SDS011;3740;50.700;7.184;2023-02-13T01:46:21;12.10;;;11.00;;
7398;SDS011;3740;50.700;7.184;2023-02-13T01:49:20;12.07;;;10.87;;
7398;SDS011;3740;50.700;7.184;2023-02-13T01:51:50;12.23;;;11.07;;
7398;SDS011;3740;50.700;7.184;2023-02-13T01:54:18;12.90;;;11.60;;
7398;SDS011;3740;50.700;7.184;2023-02-13T01:56:52;12.03;;;10.93;;
7398;SDS011;3740;50.700;7.184;2023-02-13T01:59:24;13.03;;;11.73;;
7398;SDS011;3740;50.700;7.184;2023-02-13T02:01:52;12.37;;;11.27;;
7398;SDS011;3740;50.700;7.184;2023-02-13T02:04:19;12.13;;;10.93;;
7398;SDS011;3740;50.700;7.184;2023-02-13T02:06:50;11.67;;;10.53;;
7398;SDS011;3740;50.700;7.184;2023-02-13T02:09:20;11.23;;;10.23;;
7398;SDS011;3740;50.700;7.184;2023-02-13T02:11:51;11.33;;;10.33;;
7398;SDS011;3740;50.700;7.184;2023-02-13T02:14:23;11.20;;;10.20;;
7398;SDS011;3740;50.700;7.184;2023-02-13T02:16:50;11.57;;;10.47;;
7398;SDS011;3740;50.700;7.184;2023-02-13T02:40:09;11.03;;;10.03;;
7398;SDS011;3740;50.700;7.184;2023-02-13T02:42:53;10.87;;;9.87;;
7398;SDS011;3740;50.700;7.184;2023-02-13T02:45:46;12.13;;;10.93;;
7398;SDS011;3740;50.700;7.184;2023-02-13T02:51:23;11.17;;;10.13;;
7398;SDS011;3740;50.700;7.184;2023-02-13T02:54:09;12.50;;;11.37;;
7398;SDS011;3740;50.700;7.184;2023-02-13T02:57:14;13.47;;;12.27;;
7398;SDS011;3740;50.700;7.184;2023-02-13T02:59:48;13.67;;;12.47;;
7398;SDS011;3740;50.700;7.184;2023-02-13T03:02:35;12.70;;;11.60;;
7398;SDS011;3740;50.700;7.184;2023-02-13T03:05:20;13.30;;;12.10;;
7398;SDS011;3740;50.700;7.184;2023-02-13T03:08:08;12.93;;;11.73;;
7398;SDS011;3740;50.700;7.184;2023-02-13T03:10:35;13.23;;;12.03;;
7398;SDS011;3740;50.700;7.184;2023-02-13T03:13:32;13.40;;;12.10;;
7398;SDS011;3740;50.700;7.184;2023-02-13T03:16:04;14.57;;;13.27;;
7398;SDS011;3740;50.700;7.184;2023-02-13T03:18:49;13.70;;;12.40;;
7398;SDS011;3740;50.700;7.184;2023-02-13T03:24:42;13.53;;;12.23;;
7398;SDS011;3740;50.700;7.184;2023-02-13T03:33:18;14.77;;;13.37;;
7398;SDS011;3740;50.700;7.184;2023-02-13T03:38:56;14.87;;;13.47;;
7398;SDS011;3740;50.700;7.184;2023-02-13T03:41:27;15.17;;;13.67;;
7398;SDS011;3740;50.700;7.184;2023-02-13T03:44:10;14.60;;;13.20;;
7398;SDS011;3740;50.700;7.184;2023-02-13T03:46:37;15.83;;;14.23;;
7398;SDS011;3740;50.700;7.184;2023-02-13T03:49:06;14.43;;;12.93;;
7398;SDS011;3740;50.700;7.184;2023-02-13T03:52:08;15.63;;;14.23;;
7398;SDS011;3740;50.700;7.184;2023-02-13T03:54:47;15.37;;;14.00;;
7398;SDS011;3740;50.700;7.184;2023-02-13T03:57:35;14.00;;;12.70;;
7398;SDS011;3740;50.700;7.184;2023-02-13T04:00:22;14.30;;;12.90;;
7398;SDS011;3740;50.700;7.184;2023-02-13T04:05:47;15.53;;;14.03;;
7398;SDS011;3740;50.700;7.184;2023-02-13T04:08:16;14.27;;;12.93;;
7398;SDS011;3740;50.700;7.184;2023-02-13T04:11:28;14.27;;;12.87;;
7398;SDS011;3740;50.700;7.184;2023-02-13T04:13:33;13.37;;;12.10;;
7398;SDS011;3740;50.700;7.184;2023-02-13T04:16:23;14.37;;;12.97;;
7398;SDS011;3740;50.700;7.184;2023-02-13T04:18:54;14.73;;;13.40;;
7398;SDS011;3740;50.700;7.184;2023-02-13T04:21:20;14.00;;;12.70;;
7398;SDS011;3740;50.700;7.184;2023-02-13T04:23:46;13.87;;;12.57;;
7398;SDS011;3740;50.700;7.184;2023-02-13T04:26:16;14.03;;;12.73;;
7398;SDS011;3740;50.700;7.184;2023-02-13T04:28:44;14.70;;;13.30;;
7398;SDS011;3740;50.700;7.184;2023-02-13T04:31:10;13.77;;;12.57;;
7398;SDS011;3740;50.700;7.184;2023-02-13T04:33:36;13.87;;;12.47;;
7398;SDS011;3740;50.700;7.184;2023-02-13T04:36:01;14.73;;;13.23;;
7398;SDS011;3740;50.700;7.184;2023-02-13T04:38:27;13.70;;;12.40;;
7398;SDS011;3740;50.700;7.184;2023-02-13T04:40:52;13.80;;;12.50;;
7398;SDS011;3740;50.700;7.184;2023-02-13T04:43:18;13.23;;;12.00;;
7398;SDS011;3740;50.700;7.184;2023-02-13T04:45:46;13.17;;;11.97;;
7398;SDS011;3740;50.700;7.184;2023-02-13T04:48:13;13.90;;;12.60;;
7398;SDS011;3740;50.700;7.184;2023-02-13T04:50:39;11.77;;;10.67;;
7398;SDS011;3740;50.700;7.184;2023-02-13T04:53:04;13.10;;;11.80;;
7398;SDS011;3740;50.700;7.184;2023-02-13T04:55:30;12.87;;;11.57;;
7398;SDS011;3740;50.700;7.184;2023-02-13T04:57:55;12.80;;;11.60;;
7398;SDS011;3740;50.700;7.184;2023-02-13T05:00:22;12.60;;;11.40;;
7398;SDS011;3740;50.700;7.184;2023-02-13T05:02:48;11.57;;;10.47;;
7398;SDS011;3740;50.700;7.184;2023-02-13T05:05:14;12.20;;;11.10;;
7398;SDS011;3740;50.700;7.184;2023-02-13T05:07:40;11.70;;;10.60;;
7398;SDS011;3740;50.700;7.184;2023-02-13T05:10:07;11.07;;;10.03;;
7398;SDS011;3740;50.700;7.184;2023-02-13T05:12:33;11.33;;;10.23;;
7398;SDS011;3740;50.700;7.184;2023-02-13T05:14:59;11.47;;;10.37;;
7398;SDS011;3740;50.700;7.184;2023-02-13T05:17:25;11.50;;;10.40;;
7398;SDS011;3740;50.700;7.184;2023-02-13T05:19:50;11.73;;;10.53;;
7398;SDS011;3740;50.700;7.184;2023-02-13T05:22:16;11.87;;;10.77;;
7398;SDS011;3740;50.700;7.184;2023-02-13T05:25:00;11.00;;;9.90;;
7398;SDS011;3740;50.700;7.184;2023-02-13T05:27:25;10.90;;;9.90;;
7398;SDS011;3740;50.700;7.184;2023-02-13T05:29:51;11.73;;;10.63;;
7398;SDS011;3740;50.700;7.184;2023-02-13T05:32:16;11.23;;;10.13;;
7398;SDS011;3740;50.700;7.184;2023-02-13T05:34:42;11.23;;;10.10;;
7398;SDS011;3740;50.700;7.184;2023-02-13T05:37:07;12.10;;;10.73;;
7398;SDS011;3740;50.700;7.184;2023-02-13T05:39:33;11.30;;;10.23;;
7398;SDS011;3740;50.700;7.184;2023-02-13T05:41:59;11.03;;;10.00;;
7398;SDS011;3740;50.700;7.184;2023-02-13T05:44:25;11.67;;;10.57;;
7398;SDS011;3740;50.700;7.184;2023-02-13T05:46:50;11.33;;;10.33;;
7398;SDS011;3740;50.700;7.184;2023-02-13T05:49:17;11.17;;;10.17;;
7398;SDS011;3740;50.700;7.184;2023-02-13T05:51:42;10.40;;;9.47;;
7398;SDS011;3740;50.700;7.184;2023-02-13T05:54:10;10.63;;;9.53;;
7398;SDS011;3740;50.700;7.184;2023-02-13T05:56:36;11.20;;;10.20;;
7398;SDS011;3740;50.700;7.184;2023-02-13T05:59:01;10.80;;;9.80;;
7398;SDS011;3740;50.700;7.184;2023-02-13T06:01:27;10.47;;;9.50;;
7398;SDS011;3740;50.700;7.184;2023-02-13T06:03:53;11.17;;;10.07;;
7398;SDS011;3740;50.700;7.184;2023-02-13T06:06:19;10.73;;;9.73;;
7398;SDS011;3740;50.700;7.184;2023-02-13T06:08:45;10.37;;;9.37;;
7398;SDS011;3740;50.700;7.184;2023-02-13T06:11:10;11.00;;;9.93;;
7398;SDS011;3740;50.700;7.184;2023-02-13T06:13:36;11.67;;;10.53;;
7398;SDS011;3740;50.700;7.184;2023-02-13T06:16:04;10.67;;;9.67;;
7398;SDS011;3740;50.700;7.184;2023-02-13T06:18:32;11.37;;;10.30;;
7398;SDS011;3740;50.700;7.184;2023-02-13T06:20:57;11.23;;;10.13;;
7398;SDS011;3740;50.700;7.184;2023-02-13T06:23:23;12.07;;;10.73;;
7398;SDS011;3740;50.700;7.184;2023-02-13T06:25:49;11.17;;;10.17;;
7398;SDS011;3740;50.700;7.184;2023-02-13T06:28:14;11.67;;;10.47;;
7398;SDS011;3740;50.700;7.184;2023-02-13T06:30:40;11.53;;;10.43;;
7398;SDS011;3740;50.700;7.184;2023-02-13T06:33:06;10.77;;;9.77;;
7398;SDS011;3740;50.700;7.184;2023-02-13T06:35:31;11.53;;;10.43;;
7398;SDS011;3740;50.700;7.184;2023-02-13T06:37:57;11.23;;;10.13;;
7398;SDS011;3740;50.700;7.184;2023-02-13T06:40:23;11.60;;;10.50;;
7398;SDS011;3740;50.700;7.184;2023-02-13T06:42:48;12.23;;;10.97;;
7398;SDS011;3740;50.700;7.184;2023-02-13T06:45:14;11.63;;;10.43;;
7398;SDS011;3740;50.700;7.184;2023-02-13T06:47:40;11.27;;;10.20;;
7398;SDS011;3740;50.700;7.184;2023-02-13T06:50:11;10.87;;;9.77;;
7398;SDS011;3740;50.700;7.184;2023-02-13T06:52:37;12.70;;;11.40;;
7398;SDS011;3740;50.700;7.184;2023-02-13T06:55:03;12.13;;;10.93;;
7398;SDS011;3740;50.700;7.184;2023-02-13T06:57:29;12.63;;;11.43;;
7398;SDS011;3740;50.700;7.184;2023-02-13T06:59:57;11.87;;;10.67;;
7398;SDS011;3740;50.700;7.184;2023-02-13T07:02:23;11.03;;;10.03;;
7398;SDS011;3740;50.700;7.184;2023-02-13T07:04:49;13.17;;;11.93;;
7398;SDS011;3740;50.700;7.184;2023-02-13T07:07:15;13.00;;;11.63;;
7398;SDS011;3740;50.700;7.184;2023-02-13T07:09:40;14.20;;;12.70;;
7398;SDS011;3740;50.700;7.184;2023-02-13T07:12:06;13.40;;;12.03;;
7398;SDS011;3740;50.700;7.184;2023-02-13T07:14:31;13.47;;;12.17;;
7398;SDS011;3740;50.700;7.184;2023-02-13T07:16:57;14.27;;;12.87;;
7398;SDS011;3740;50.700;7.184;2023-02-13T07:19:23;13.37;;;11.97;;
7398;SDS011;3740;50.700;7.184;2023-02-13T07:21:48;13.33;;;12.03;;
7398;SDS011;3740;50.700;7.184;2023-02-13T07:24:14;13.00;;;11.70;;
7398;SDS011;3740;50.700;7.184;2023-02-13T07:26:40;12.87;;;11.47;;
7398;SDS011;3740;50.700;7.184;2023-02-13T07:29:05;11.77;;;10.63;;
7398;SDS011;3740;50.700;7.184;2023-02-13T07:31:34;14.07;;;12.67;;
7398;SDS011;3740;50.700;7.184;2023-02-13T07:33:59;15.83;;;14.23;;
7398;SDS011;3740;50.700;7.184;2023-02-13T07:36:26;16.90;;;13.33;;
7398;SDS011;3740;50.700;7.184;2023-02-13T07:38:51;14.37;;;12.97;;
7398;SDS011;3740;50.700;7.184;2023-02-13T07:41:17;14.00;;;12.60;;
7398;SDS011;3740;50.700;7.184;2023-02-13T07:43:43;21.63;;;18.80;;
7398;SDS011;3740;50.700;7.184;2023-02-13T07:46:08;22.77;;;18.67;;
7398;SDS011;3740;50.700;7.184;2023-02-13T07:48:34;18.47;;;16.50;;
7398;SDS011;3740;50.700;7.184;2023-02-13T07:51:01;17.33;;;15.20;;
7398;SDS011;3740;50.700;7.184;2023-02-13T07:53:28;15.43;;;13.93;;
7398;SDS011;3740;50.700;7.184;2023-02-13T07:55:54;15.00;;;13.50;;
7398;SDS011;3740;50.700;7.184;2023-02-13T07:58:19;16.30;;;14.60;;
7398;SDS011;3740;50.700;7.184;2023-02-13T08:00:45;16.17;;;14.40;;
7398;SDS011;3740;50.700;7.184;2023-02-13T08:03:10;17.47;;;15.47;;
7398;SDS011;3740;50.700;7.184;2023-02-13T08:05:36;15.30;;;13.70;;
7398;SDS011;3740;50.700;7.184;2023-02-13T08:08:02;16.37;;;14.70;;
7398;SDS011;3740;50.700;7.184;2023-02-13T08:10:28;18.50;;;16.60;;
7398;SDS011;3740;50.700;7.184;2023-02-13T08:13:12;16.97;;;15.27;;
7398;SDS011;3740;50.700;7.184;2023-02-13T08:15:40;20.13;;;18.20;;
7398;SDS011;3740;50.700;7.184;2023-02-13T08:18:05;17.23;;;15.53;;
7398;SDS011;3740;50.700;7.184;2023-02-13T08:20:31;16.90;;;15.20;;
7398;SDS011;3740;50.700;7.184;2023-02-13T08:23:03;17.57;;;15.97;;
7398;SDS011;3740;50.700;7.184;2023-02-13T08:25:31;16.07;;;14.23;;
7398;SDS011;3740;50.700;7.184;2023-02-13T08:27:57;15.80;;;14.10;;
7398;SDS011;3740;50.700;7.184;2023-02-13T08:30:24;15.00;;;13.50;;
7398;SDS011;3740;50.700;7.184;2023-02-13T08:32:50;14.27;;;12.87;;
7398;SDS011;3740;50.700;7.184;2023-02-13T08:35:15;13.73;;;12.40;;
7398;SDS011;3740;50.700;7.184;2023-02-13T08:37:41;15.23;;;13.60;;
7398;SDS011;3740;50.700;7.184;2023-02-13T08:40:07;15.03;;;13.53;;
7398;SDS011;3740;50.700;7.184;2023-02-13T08:42:34;14.00;;;12.50;;
7398;SDS011;3740;50.700;7.184;2023-02-13T08:45:00;14.47;;;12.97;;
7398;SDS011;3740;50.700;7.184;2023-02-13T08:47:26;15.37;;;13.67;;
7398;SDS011;3740;50.700;7.184;2023-02-13T08:49:52;14.90;;;13.40;;
7398;SDS011;3740;50.700;7.184;2023-02-13T08:52:17;14.03;;;12.53;;
7398;SDS011;3740;50.700;7.184;2023-02-13T08:54:43;14.73;;;13.23;;
7398;SDS011;3740;50.700;7.184;2023-02-13T08:57:08;14.67;;;13.20;;
7398;SDS011;3740;50.700;7.184;2023-02-13T08:59:34;14.40;;;13.00;;
7398;SDS011;3740;50.700;7.184;2023-02-13T09:01:59;14.40;;;13.00;;
7398;SDS011;3740;50.700;7.184;2023-02-13T09:04:25;14.50;;;13.07;;
7398;SDS011;3740;50.700;7.184;2023-02-13T09:06:52;14.57;;;13.03;;
7398;SDS011;3740;50.700;7.184;2023-02-13T09:09:17;14.73;;;13.23;;
7398;SDS011;3740;50.700;7.184;2023-02-13T09:11:43;14.93;;;13.03;;
7398;SDS011;3740;50.700;7.184;2023-02-13T09:14:09;15.00;;;13.40;;
7398;SDS011;3740;50.700;7.184;2023-02-13T09:16:34;14.80;;;13.40;;
7398;SDS011;3740;50.700;7.184;2023-02-13T09:19:00;14.80;;;13.30;;
7398;SDS011;3740;50.700;7.184;2023-02-13T09:21:25;14.93;;;13.40;;
7398;SDS011;3740;50.700;7.184;2023-02-13T09:23:51;15.37;;;13.80;;
7398;SDS011;3740;50.700;7.184;2023-02-13T09:26:19;14.20;;;12.80;;
7398;SDS011;3740;50.700;7.184;2023-02-13T09:28:44;14.87;;;13.30;;
7398;SDS011;3740;50.700;7.184;2023-02-13T09:31:11;14.33;;;12.90;;
7398;SDS011;3740;50.700;7.184;2023-02-13T09:33:44;14.03;;;12.27;;
7398;SDS011;3740;50.700;7.184;2023-02-13T09:36:15;14.27;;;12.87;;
7398;SDS011;3740;50.700;7.184;2023-02-13T09:38:44;14.23;;;11.93;;
7398;SDS011;3740;50.700;7.184;2023-02-13T09:41:15;14.70;;;13.10;;
7398;SDS011;3740;50.700;7.184;2023-02-13T09:43:53;13.53;;;12.13;;
7398;SDS011;3740;50.700;7.184;2023-02-13T09:46:27;13.30;;;11.37;;
7398;SDS011;3740;50.700;7.184;2023-02-13T09:48:58;14.37;;;12.93;;
7398;SDS011;3740;50.700;7.184;2023-02-13T09:51:26;14.20;;;12.37;;
7398;SDS011;3740;50.700;7.184;2023-02-13T09:54:00;13.87;;;12.47;;
7398;SDS011;3740;50.700;7.184;2023-02-13T09:59:26;15.40;;;12.17;;
7398;SDS011;3740;50.700;7.184;2023-02-13T10:10:52;12.87;;;11.63;;
7398;SDS011;3740;50.700;7.184;2023-02-13T10:13:46;12.03;;;10.83;;
7398;SDS011;3740;50.700;7.184;2023-02-13T10:16:22;13.40;;;12.00;;
7398;SDS011;3740;50.700;7.184;2023-02-13T10:21:41;10.67;;;9.57;;
7398;SDS011;3740;50.700;7.184;2023-02-13T10:26:56;9.85;;;8.95;;
7398;SDS011;3740;50.700;7.184;2023-02-13T10:29:34;8.60;;;7.80;;
7398;SDS011;3740;50.700;7.184;2023-02-13T10:32:27;8.10;;;7.30;;
7398;SDS011;3740;50.700;7.184;2023-02-13T10:35:17;7.53;;;6.70;;
7398;SDS011;3740;50.700;7.184;2023-02-13T10:37:47;7.55;;;6.93;;
7398;SDS011;3740;50.700;7.184;2023-02-13T10:40:15;9.15;;;8.27;;
7398;SDS011;3740;50.700;7.184;2023-02-13T10:42:46;8.43;;;7.72;;
7398;SDS011;3740;50.700;7.184;2023-02-13T10:48:23;8.85;;;8.10;;
7398;SDS011;3740;50.700;7.184;2023-02-13T10:51:07;8.43;;;7.63;;
7398;SDS011;3740;50.700;7.184;2023-02-13T10:53:50;9.20;;;8.30;;
7398;SDS011;3740;50.700;7.184;2023-02-13T11:01:56;8.88;;;7.20;;
7398;SDS011;3740;50.700;7.184;2023-02-13T11:04:23;7.78;;;7.18;;
7398;SDS011;3740;50.700;7.184;2023-02-13T11:09:24;8.70;;;7.63;;
7398;SDS011;3740;50.700;7.184;2023-02-13T11:11:51;8.80;;;7.95;;
7398;SDS011;3740;50.700;7.184;2023-02-13T11:14:24;8.13;;;7.43;;
7398;SDS011;3740;50.700;7.184;2023-02-13T11:17:01;8.52;;;7.68;;
7398;SDS011;3740;50.700;7.184;2023-02-13T11:19:38;9.40;;;8.52;;
7398;SDS011;3740;50.700;7.184;2023-02-13T11:22:14;8.52;;;7.72;;
7398;SDS011;3740;50.700;7.184;2023-02-13T11:24:52;8.07;;;7.38;;
7398;SDS011;3740;50.700;7.184;2023-02-13T11:27:29;8.80;;;8.00;;
7398;SDS011;3740;50.700;7.184;2023-02-13T11:30:04;8.57;;;7.75;;
7398;SDS011;3740;50.700;7.184;2023-02-13T11:32:32;8.30;;;7.57;;
7398;SDS011;3740;50.700;7.184;2023-02-13T11:35:15;9.10;;;7.88;;
7398;SDS011;3740;50.700;7.184;2023-02-13T11:38:09;8.50;;;7.70;;
7398;SDS011;3740;50.700;7.184;2023-02-13T11:40:45;9.07;;;8.27;;
7398;SDS011;3740;50.700;7.184;2023-02-13T11:43:33;8.73;;;8.02;;
7398;SDS011;3740;50.700;7.184;2023-02-13T11:46:05;9.25;;;8.35;;
7398;SDS011;3740;50.700;7.184;2023-02-13T11:48:35;7.78;;;7.00;;
7398;SDS011;3740;50.700;7.184;2023-02-13T11:51:01;8.60;;;7.80;;
7398;SDS011;3740;50.700;7.184;2023-02-13T11:53:31;8.25;;;7.43;;
7398;SDS011;3740;50.700;7.184;2023-02-13T11:56:03;7.93;;;7.22;;
7398;SDS011;3740;50.700;7.184;2023-02-13T11:58:34;8.35;;;7.63;;
7398;SDS011;3740;50.700;7.184;2023-02-13T12:03:43;8.43;;;7.57;;
7398;SDS011;3740;50.700;7.184;2023-02-13T12:06:32;7.82;;;7.13;;
7398;SDS011;3740;50.700;7.184;2023-02-13T12:09:04;8.68;;;7.80;;
7398;SDS011;3740;50.700;7.184;2023-02-13T12:14:17;7.97;;;7.18;;
7398;SDS011;3740;50.700;7.184;2023-02-13T12:17:07;9.70;;;8.07;;
7398;SDS011;3740;50.700;7.184;2023-02-13T12:22:17;8.25;;;7.07;;
7398;SDS011;3740;50.700;7.184;2023-02-13T12:25:19;8.75;;;7.80;;
7398;SDS011;3740;50.700;7.184;2023-02-13T12:28:00;8.15;;;7.35;;
7398;SDS011;3740;50.700;7.184;2023-02-13T12:31:03;8.00;;;7.13;;
7398;SDS011;3740;50.700;7.184;2023-02-13T12:36:20;7.47;;;6.70;;
7398;SDS011;3740;50.700;7.184;2023-02-13T12:44:32;8.05;;;7.25;;
7398;SDS011;3740;50.700;7.184;2023-02-13T12:48:23;7.50;;;6.85;;
7398;SDS011;3740;50.700;7.184;2023-02-13T12:55:59;6.80;;;6.20;;
7398;SDS011;3740;50.700;7.184;2023-02-13T12:58:45;7.22;;;6.50;;
7398;SDS011;3740;50.700;7.184;2023-02-13T13:01:23;6.60;;;6.00;;
7398;SDS011;3740;50.700;7.184;2023-02-13T13:09:57;9.40;;;6.30;;
7398;SDS011;3740;50.700;7.184;2023-02-13T13:12:40;6.80;;;6.10;;
7398;SDS011;3740;50.700;7.184;2023-02-13T13:23:05;7.82;;;6.65;;
7398;SDS011;3740;50.700;7.184;2023-02-13T13:28:23;7.53;;;6.55;;
7398;SDS011;3740;50.700;7.184;2023-02-13T13:30:56;7.55;;;6.15;;
7398;SDS011;3740;50.700;7.184;2023-02-13T13:33:23;6.68;;;6.07;;
7398;SDS011;3740;50.700;7.184;2023-02-13T13:52:10;7.38;;;6.15;;
7398;SDS011;3740;50.700;7.184;2023-02-13T13:54:45;6.75;;;6.07;;
7398;SDS011;3740;50.700;7.184;2023-02-13T13:57:15;6.72;;;5.97;;
7398;SDS011;3740;50.700;7.184;2023-02-13T14:04:58;6.05;;;5.45;;
7398;SDS011;3740;50.700;7.184;2023-02-13T14:07:49;7.18;;;6.10;;
7398;SDS011;3740;50.700;7.184;2023-02-13T14:12:49;6.80;;;5.93;;
7398;SDS011;3740;50.700;7.184;2023-02-13T14:18:14;6.65;;;5.78;;
7398;SDS011;3740;50.700;7.184;2023-02-13T14:28:42;6.88;;;6.00;;
7398;SDS011;3740;50.700;7.184;2023-02-13T14:31:30;8.02;;;5.45;;
7398;SDS011;3740;50.700;7.184;2023-02-13T14:34:21;5.90;;;5.25;;
7398;SDS011;3740;50.700;7.184;2023-02-13T14:42:53;5.90;;;5.30;;
7398;SDS011;3740;50.700;7.184;2023-02-13T14:45:28;6.10;;;5.40;;
7398;SDS011;3740;50.700;7.184;2023-02-13T14:47:56;6.20;;;5.22;;
7398;SDS011;3740;50.700;7.184;2023-02-13T14:50:27;5.13;;;4.65;;
7398;SDS011;3740;50.700;7.184;2023-02-13T14:53:06;5.57;;;4.97;;
7398;SDS011;3740;50.700;7.184;2023-02-13T14:55:40;5.63;;;5.13;;
7398;SDS011;3740;50.700;7.184;2023-02-13T14:58:15;5.65;;;5.05;;
7398;SDS011;3740;50.700;7.184;2023-02-13T15:03:46;6.85;;;5.05;;
7398;SDS011;3740;50.700;7.184;2023-02-13T15:06:21;5.35;;;4.82;;
7398;SDS011;3740;50.700;7.184;2023-02-13T15:08:53;5.68;;;5.18;;
7398;SDS011;3740;50.700;7.184;2023-02-13T15:11:37;5.55;;;4.75;;
7398;SDS011;3740;50.700;7.184;2023-02-13T15:14:20;5.72;;;4.88;;
7398;SDS011;3740;50.700;7.184;2023-02-13T15:16:49;5.43;;;4.80;;
7398;SDS011;3740;50.700;7.184;2023-02-13T15:19:22;7.50;;;4.80;;
7398;SDS011;3740;50.700;7.184;2023-02-13T15:21:51;6.57;;;4.93;;
7398;SDS011;3740;50.700;7.184;2023-02-13T15:24:18;7.97;;;4.80;;
7398;SDS011;3740;50.700;7.184;2023-02-13T15:26:54;7.05;;;4.95;;
7398;SDS011;3740;50.700;7.184;2023-02-13T15:29:26;10.65;;;5.28;;
7398;SDS011;3740;50.700;7.184;2023-02-13T15:31:52;5.10;;;4.68;;
7398;SDS011;3740;50.700;7.184;2023-02-13T15:34:22;5.75;;;5.25;;
7398;SDS011;3740;50.700;7.184;2023-02-13T15:36:48;11.38;;;5.30;;
7398;SDS011;3740;50.700;7.184;2023-02-13T15:39:15;7.82;;;5.93;;
7398;SDS011;3740;50.700;7.184;2023-02-13T15:41:46;6.05;;;5.22;;
7398;SDS011;3740;50.700;7.184;2023-02-13T15:44:24;5.25;;;4.75;;
7398;SDS011;3740;50.700;7.184;2023-02-13T15:46:55;5.22;;;4.72;;
7398;SDS011;3740;50.700;7.184;2023-02-13T15:49:35;5.85;;;4.80;;
7398;SDS011;3740;50.700;7.184;2023-02-13T15:52:07;5.40;;;4.90;;
7398;SDS011;3740;50.700;7.184;2023-02-13T15:54:46;5.25;;;4.60;;
7398;SDS011;3740;50.700;7.184;2023-02-13T15:57:14;5.25;;;4.75;;
7398;SDS011;3740;50.700;7.184;2023-02-13T15:59:40;6.22;;;4.53;;
7398;SDS011;3740;50.700;7.184;2023-02-13T16:02:10;5.47;;;4.78;;
7398;SDS011;3740;50.700;7.184;2023-02-13T16:04:40;5.68;;;4.75;;
7398;SDS011;3740;50.700;7.184;2023-02-13T16:07:10;5.25;;;4.75;;
7398;SDS011;3740;50.700;7.184;2023-02-13T16:09:37;5.55;;;5.05;;
7398;SDS011;3740;50.700;7.184;2023-02-13T16:15:00;5.50;;;5.00;;
7398;SDS011;3740;50.700;7.184;2023-02-13T16:17:32;7.57;;;5.60;;
7398;SDS011;3740;50.700;7.184;2023-02-13T16:20:02;6.13;;;5.07;;
7398;SDS011;3740;50.700;7.184;2023-02-13T16:22:43;5.93;;;5.07;;
7398;SDS011;3740;50.700;7.184;2023-02-13T16:27:54;6.23;;;5.30;;
7398;SDS011;3740;50.700;7.184;2023-02-13T16:33:27;7.50;;;5.57;;
7398;SDS011;3740;50.700;7.184;2023-02-13T16:38:43;6.10;;;5.37;;
7398;SDS011;3740;50.700;7.184;2023-02-13T16:44:04;8.53;;;7.47;;
7398;SDS011;3740;50.700;7.184;2023-02-13T16:46:52;9.73;;;8.53;;
7398;SDS011;3740;50.700;7.184;2023-02-13T16:49:21;11.53;;;9.20;;
7398;SDS011;3740;50.700;7.184;2023-02-13T16:51:53;11.57;;;8.90;;
7398;SDS011;3740;50.700;7.184;2023-02-13T16:57:16;11.13;;;9.43;;
7398;SDS011;3740;50.700;7.184;2023-02-13T17:05:00;8.73;;;7.83;;
7398;SDS011;3740;50.700;7.184;2023-02-13T17:07:36;10.20;;;8.90;;
7398;SDS011;3740;50.700;7.184;2023-02-13T17:10:09;10.20;;;9.20;;
7398;SDS011;3740;50.700;7.184;2023-02-13T17:12:51;11.03;;;9.10;;
7398;SDS011;3740;50.700;7.184;2023-02-13T17:15:19;13.10;;;10.00;;
7398;SDS011;3740;50.700;7.184;2023-02-13T17:17:47;11.63;;;10.30;;
7398;SDS011;3740;50.700;7.184;2023-02-13T17:20:16;10.47;;;9.43;;
7398;SDS011;3740;50.700;7.184;2023-02-13T17:22:46;10.40;;;9.30;;
7398;SDS011;3740;50.700;7.184;2023-02-13T17:25:16;9.93;;;8.93;;
7398;SDS011;3740;50.700;7.184;2023-02-13T17:27:46;9.90;;;8.90;;
7398;SDS011;3740;50.700;7.184;2023-02-13T17:30:16;10.87;;;9.60;;
7398;SDS011;3740;50.700;7.184;2023-02-13T17:32:48;11.77;;;10.53;;
7398;SDS011;3740;50.700;7.184;2023-02-13T17:35:15;12.00;;;10.73;;
7398;SDS011;3740;50.700;7.184;2023-02-13T17:37:41;11.13;;;9.97;;
7398;SDS011;3740;50.700;7.184;2023-02-13T17:40:13;10.93;;;9.93;;
7398;SDS011;3740;50.700;7.184;2023-02-13T17:42:49;10.50;;;9.50;;
7398;SDS011;3740;50.700;7.184;2023-02-13T17:45:17;10.03;;;9.10;;
7398;SDS011;3740;50.700;7.184;2023-02-13T17:47:45;9.63;;;8.73;;
7398;SDS011;3740;50.700;7.184;2023-02-13T17:50:11;9.10;;;7.93;;
7398;SDS011;3740;50.700;7.184;2023-02-13T17:52:41;8.73;;;7.83;;
7398;SDS011;3740;50.700;7.184;2023-02-13T17:57:48;8.47;;;7.67;;
7398;SDS011;3740;50.700;7.184;2023-02-13T18:00:15;8.33;;;7.50;;
7398;SDS011;3740;50.700;7.184;2023-02-13T18:02:42;9.30;;;7.90;;
7398;SDS011;3740;50.700;7.184;2023-02-13T18:05:12;8.17;;;7.37;;
7398;SDS011;3740;50.700;7.184;2023-02-13T18:07:38;7.40;;;6.70;;
7398;SDS011;3740;50.700;7.184;2023-02-13T18:10:09;5.63;;;5.10;;
7398;SDS011;3740;50.700;7.184;2023-02-13T18:12:37;6.37;;;5.77;;
7398;SDS011;3740;50.700;7.184;2023-02-13T18:15:06;6.00;;;5.50;;